createdAt,value
2023-05-12T00:00:25.326Z,17.2
2023-05-12T00:01:42.352Z,17.3
2023-05-12T00:02:59.433Z,17.3
2023-05-12T00:04:16.991Z,17.4
2023-05-12T00:05:33.330Z,17.3
2023-05-12T00:06:50.323Z,17.4
2023-05-12T00:08:07.333Z,17.4
2023-05-12T00:09:24.360Z,17.5
2023-05-12T00:10:41.365Z,17.4
2023-05-12T00:11:58.336Z,17.4
2023-05-12T00:13:15.386Z,17.3
2023-05-12T00:14:32.377Z,17.2
2023-05-12T00:15:49.342Z,17
2023-05-12T00:17:06.412Z,16.9
2023-05-12T00:18:23.406Z,16.9
2023-05-12T00:19:40.359Z,17
2023-05-12T00:20:57.395Z,17.1
2023-05-12T00:22:14.420Z,17.1
2023-05-12T00:23:31.435Z,17
2023-05-12T00:24:48.366Z,17
2023-05-12T00:26:05.371Z,17.1
2023-05-12T00:27:22.437Z,17.1
2023-05-12T00:28:39.364Z,17.1
2023-05-12T00:29:56.373Z,17.1
2023-05-12T00:31:13.433Z,17.1
2023-05-12T00:32:30.590Z,17.1
2023-05-12T00:33:47.379Z,17.1
2023-05-12T00:35:04.979Z,17.1
2023-05-12T00:36:22.388Z,17.1
2023-05-12T00:37:39.433Z,17.1
2023-05-12T00:38:56.393Z,17.1
2023-05-12T00:40:13.388Z,17
2023-05-12T00:41:30.405Z,17
2023-05-12T00:42:47.467Z,17
2023-05-12T00:44:04.387Z,17
2023-05-12T00:45:21.426Z,17.1
2023-05-12T00:46:38.405Z,17.1
2023-05-12T00:47:55.510Z,17.1
2023-05-12T00:49:12.422Z,17
2023-05-12T00:50:29.406Z,17
2023-05-12T00:51:46.445Z,16.9
2023-05-12T00:53:03.409Z,16.9
2023-05-12T00:54:20.498Z,16.9
2023-05-12T00:55:37.488Z,16.9
2023-05-12T00:56:54.441Z,16.9
2023-05-12T00:58:11.454Z,16.9
2023-05-12T00:59:28.437Z,16.8
2023-05-12T01:00:45.445Z,16.8
2023-05-12T01:02:02.575Z,16.8
2023-05-12T01:03:19.536Z,16.7
2023-05-12T01:04:36.421Z,16.7
2023-05-12T01:05:53.502Z,16.7
2023-05-12T01:07:10.431Z,16.7
2023-05-12T01:08:27.533Z,16.8
2023-05-12T01:09:44.446Z,16.8
2023-05-12T01:11:01.504Z,16.8
2023-05-12T01:12:18.758Z,16.8
2023-05-12T01:13:35.439Z,16.7
2023-05-12T01:14:52.440Z,16.7
2023-05-12T01:16:09.465Z,16.6
2023-05-12T01:17:26.874Z,16.6
2023-05-12T01:18:44.493Z,16.6
2023-05-12T01:20:01.496Z,16.5
2023-05-12T01:21:18.461Z,16.5
2023-05-12T01:22:36.262Z,16.3
2023-05-12T01:23:53.646Z,16.2
2023-05-12T01:25:10.464Z,16.1
2023-05-12T01:26:27.458Z,16
2023-05-12T01:27:44.492Z,15.8
2023-05-12T01:29:01.474Z,15.6
2023-05-12T01:30:18.635Z,15.5
2023-05-12T01:31:35.585Z,15.5
2023-05-12T01:32:52.508Z,15.4
2023-05-12T01:34:09.492Z,15.4
2023-05-12T01:35:26.492Z,15.4
2023-05-12T01:36:43.482Z,15.5
2023-05-12T01:38:00.501Z,15.5
2023-05-12T01:39:17.488Z,15.5
2023-05-12T01:40:34.530Z,15.6
2023-05-12T01:41:51.484Z,15.6
2023-05-12T01:43:08.510Z,15.7
2023-05-12T01:44:25.478Z,15.7
2023-05-12T01:45:42.552Z,15.8
2023-05-12T01:46:59.488Z,15.7
2023-05-12T01:48:16.486Z,15.7
2023-05-12T01:49:33.522Z,15.7
2023-05-12T01:50:50.519Z,15.7
2023-05-12T01:52:07.515Z,15.7
2023-05-12T01:53:24.528Z,15.7
2023-05-12T01:54:41.518Z,15.7
2023-05-12T01:55:58.502Z,15.7
2023-05-12T01:57:15.526Z,15.7
2023-05-12T01:58:32.515Z,15.8
2023-05-12T01:59:49.545Z,15.8
2023-05-12T02:01:06.507Z,15.9
2023-05-12T02:02:23.542Z,15.7
2023-05-12T02:03:40.642Z,15.7
2023-05-12T02:04:57.757Z,15.7
2023-05-12T02:06:14.601Z,15.8
2023-05-12T02:07:31.540Z,15.7
2023-05-12T02:08:48.563Z,15.7
2023-05-12T02:10:05.562Z,15.6
2023-05-12T02:11:22.559Z,15.6
2023-05-12T02:12:39.543Z,15.6
2023-05-12T02:13:56.530Z,15.5
2023-05-12T02:15:13.589Z,15.4
2023-05-12T02:16:30.545Z,15.4
2023-05-12T02:17:47.566Z,15.5
2023-05-12T02:19:04.581Z,15.5
2023-05-12T02:20:21.780Z,15.6
2023-05-12T02:21:38.563Z,15.6
2023-05-12T02:22:55.566Z,15.6
2023-05-12T02:24:14.774Z,15.6
2023-05-12T02:25:29.610Z,15.6
2023-05-12T02:26:46.597Z,15.6
2023-05-12T02:28:03.571Z,15.6
2023-05-12T02:29:20.603Z,15.7
2023-05-12T02:30:37.603Z,15.7
2023-05-12T02:31:54.561Z,15.7
2023-05-12T02:33:11.552Z,15.7
2023-05-12T02:34:28.634Z,15.7
2023-05-12T02:35:45.704Z,15.7
2023-05-12T02:37:02.558Z,15.7
2023-05-12T02:38:19.659Z,15.7
2023-05-12T02:39:36.587Z,15.7
2023-05-12T02:40:53.593Z,15.6
2023-05-12T02:42:10.572Z,15.5
2023-05-12T02:43:27.571Z,15.4
2023-05-12T02:44:44.699Z,15.3
2023-05-12T02:46:01.774Z,15.2
2023-05-12T02:47:18.578Z,15.2
2023-05-12T02:48:35.575Z,15.1
2023-05-12T02:49:52.607Z,15
2023-05-12T02:51:10.136Z,15
2023-05-12T02:52:27.668Z,14.9
2023-05-12T02:53:44.584Z,14.8
2023-05-12T02:55:01.627Z,14.8
2023-05-12T02:56:18.586Z,14.9
2023-05-12T02:57:35.618Z,15
2023-05-12T02:58:52.607Z,15
2023-05-12T03:00:09.614Z,15.1
2023-05-12T03:01:26.613Z,15.2
2023-05-12T03:02:43.696Z,15.3
2023-05-12T03:04:00.647Z,15.3
2023-05-12T03:05:17.676Z,15.3
2023-05-12T03:06:34.680Z,15.3
2023-05-12T03:07:51.612Z,15.3
2023-05-12T03:09:08.602Z,15.3
2023-05-12T03:10:25.631Z,15.2
2023-05-12T03:11:43.242Z,15.2
2023-05-12T03:12:59.625Z,15.2
2023-05-12T03:14:16.623Z,15.1
2023-05-12T03:15:33.632Z,15.1
2023-05-12T03:16:50.651Z,14.9
2023-05-12T03:18:07.680Z,14.8
2023-05-12T03:19:24.614Z,14.8
2023-05-12T03:20:41.633Z,14.9
2023-05-12T03:21:58.700Z,14.9
2023-05-12T03:23:15.634Z,14.9
2023-05-12T03:24:32.637Z,14.9
2023-05-12T03:25:49.633Z,14.9
2023-05-12T03:27:06.665Z,14.9
2023-05-12T03:28:23.634Z,15
2023-05-12T03:29:40.634Z,15.1
2023-05-12T03:30:57.703Z,15.1
2023-05-12T03:32:14.682Z,15
2023-05-12T03:33:31.674Z,15.1
2023-05-12T03:34:48.655Z,15.2
2023-05-12T03:36:05.644Z,15.2
2023-05-12T03:37:22.685Z,15.3
2023-05-12T03:38:39.684Z,15.3
2023-05-12T03:39:56.650Z,15.3
2023-05-12T03:41:13.656Z,15.4
2023-05-12T03:42:30.658Z,15.4
2023-05-12T03:43:47.727Z,15.4
2023-05-12T03:45:04.673Z,15.4
2023-05-12T03:46:21.727Z,15.5
2023-05-12T03:47:38.771Z,15.5
2023-05-12T03:48:55.709Z,15.6
2023-05-12T03:50:12.710Z,15.7
2023-05-12T03:51:29.672Z,15.8
2023-05-12T03:52:46.714Z,15.8
2023-05-12T03:54:03.698Z,15.8
2023-05-12T03:55:20.680Z,15.7
2023-05-12T03:56:37.680Z,15.7
2023-05-12T03:57:54.722Z,15.7
2023-05-12T03:59:11.730Z,15.7
2023-05-12T04:00:28.688Z,15.5
2023-05-12T04:01:45.742Z,15.3
2023-05-12T04:03:02.729Z,15.2
2023-05-12T04:04:19.729Z,15.1
2023-05-12T04:05:36.692Z,15.1
2023-05-12T04:06:53.692Z,15.2
2023-05-12T04:08:10.747Z,15.3
2023-05-12T04:09:27.748Z,15.4
2023-05-12T04:10:44.695Z,15.5
2023-05-12T04:12:01.718Z,15.7
2023-05-12T04:13:18.715Z,15.8
2023-05-12T04:14:42.661Z,15.8
2023-05-12T04:15:53.028Z,15.8
2023-05-12T04:17:09.709Z,15.8
2023-05-12T04:18:26.769Z,15.7
2023-05-12T04:19:43.761Z,15.6
2023-05-12T04:21:00.839Z,15.6
2023-05-12T04:22:18.266Z,15.6
2023-05-12T04:23:35.756Z,15.5
2023-05-12T04:24:53.176Z,15.4
2023-05-12T04:26:10.748Z,15.5
2023-05-12T04:27:27.761Z,15.6
2023-05-12T04:28:44.736Z,15.7
2023-05-12T04:30:01.764Z,15.7
2023-05-12T04:31:18.841Z,15.8
2023-05-12T04:32:35.818Z,15.7
2023-05-12T04:33:52.734Z,15.6
2023-05-12T04:35:10.859Z,15.6
2023-05-12T04:36:28.348Z,15.6
2023-05-12T04:37:45.795Z,15.6
2023-05-12T04:39:02.765Z,15.5
2023-05-12T04:40:19.921Z,15.4
2023-05-12T04:41:36.812Z,15.4
2023-05-12T04:42:53.780Z,15.5
2023-05-12T04:44:10.763Z,15.6
2023-05-12T04:45:27.752Z,15.6
2023-05-12T04:46:44.756Z,15.6
2023-05-12T04:48:01.820Z,15.8
2023-05-12T04:49:18.759Z,16
2023-05-12T04:50:35.800Z,16
2023-05-12T04:51:52.829Z,15.9
2023-05-12T04:53:11.374Z,15.8
2023-05-12T04:54:26.800Z,15.8
2023-05-12T04:55:43.796Z,15.8
2023-05-12T04:57:00.808Z,15.7
2023-05-12T04:58:17.776Z,15.8
2023-05-12T04:59:34.785Z,15.9
2023-05-12T05:00:51.779Z,16.1
2023-05-12T05:02:08.883Z,16.3
2023-05-12T05:03:25.899Z,16.5
2023-05-12T05:04:42.787Z,16.5
2023-05-12T05:05:59.792Z,16.6
2023-05-12T05:07:16.784Z,16.8
2023-05-12T05:08:33.814Z,16.8
2023-05-12T05:09:51.417Z,16.8
2023-05-12T05:11:07.791Z,16.9
2023-05-12T05:12:24.849Z,16.9
2023-05-12T05:13:41.807Z,16.9
2023-05-12T05:14:58.863Z,16.9
2023-05-12T05:16:15.855Z,16.7
2023-05-12T05:17:32.844Z,16.6
2023-05-12T05:18:49.819Z,16.6
2023-05-12T05:20:11.580Z,16.7
2023-05-12T05:21:23.842Z,16.8
2023-05-12T05:22:40.837Z,16.9
2023-05-12T05:23:57.832Z,17.1
2023-05-12T05:25:14.901Z,17.1
2023-05-12T05:26:32.016Z,17.1
2023-05-12T05:27:48.898Z,17
2023-05-12T05:29:05.867Z,17.1
2023-05-12T05:30:22.825Z,17.2
2023-05-12T05:31:39.833Z,17.4
2023-05-12T05:32:56.855Z,17.6
2023-05-12T05:34:13.869Z,17.7
2023-05-12T05:35:30.828Z,17.8
2023-05-12T05:36:47.837Z,17.7
2023-05-12T05:38:04.848Z,17.6
2023-05-12T05:39:21.912Z,17.5
2023-05-12T05:40:49.177Z,17.4
2023-05-12T05:41:55.864Z,17.6
2023-05-12T05:43:12.895Z,17.7
2023-05-12T05:44:29.870Z,17.9
2023-05-12T05:45:46.844Z,17.9
2023-05-12T05:47:03.889Z,17.8
2023-05-12T05:48:20.894Z,17.9
2023-05-12T05:49:37.941Z,17.9
2023-05-12T05:50:54.892Z,17.9
2023-05-12T05:52:11.869Z,17.9
2023-05-12T05:53:29.133Z,17.9
2023-05-12T05:54:45.878Z,17.7
2023-05-12T05:56:02.876Z,17.7
2023-05-12T05:57:19.895Z,17.7
2023-05-12T05:58:36.892Z,17.5
2023-05-12T05:59:53.853Z,17.6
2023-05-12T06:01:10.864Z,17.6
2023-05-12T06:02:28.011Z,17.8
2023-05-12T06:03:45.050Z,18.1
2023-05-12T06:05:01.901Z,18.6
2023-05-12T06:06:18.892Z,18.8
2023-05-12T06:07:35.896Z,18.7
2023-05-12T06:08:52.928Z,18.4
2023-05-12T06:10:09.879Z,18.4
2023-05-12T06:11:26.976Z,18.5
2023-05-12T06:12:43.918Z,18.7
2023-05-12T06:14:00.957Z,18.8
2023-05-12T06:15:18.006Z,19
2023-05-12T06:16:34.945Z,19.3
2023-05-12T06:17:51.958Z,19.4
2023-05-12T06:19:09.031Z,19.6
2023-05-12T06:20:25.956Z,19.8
2023-05-12T06:21:42.884Z,19.9
2023-05-12T06:22:59.910Z,20.1
2023-05-12T06:24:16.950Z,20.1
2023-05-12T06:25:33.943Z,20.1
2023-05-12T06:26:50.937Z,20.4
2023-05-12T06:28:07.924Z,20.9
2023-05-12T06:29:24.942Z,21.5
2023-05-12T06:30:41.955Z,22
2023-05-12T06:31:59.009Z,22.5
2023-05-12T06:33:15.964Z,22.6
2023-05-12T06:34:32.915Z,22.9
2023-05-12T06:35:49.976Z,23.4
2023-05-12T06:37:06.998Z,23.9
2023-05-12T06:38:23.929Z,24.2
2023-05-12T06:39:40.914Z,24.5
2023-05-12T06:40:57.929Z,24.8
2023-05-12T06:42:16.242Z,25.2
2023-05-12T06:43:32.933Z,25.6
2023-05-12T06:44:49.936Z,25.7
2023-05-12T06:46:06.986Z,26
2023-05-12T06:47:23.977Z,26.4
2023-05-12T06:48:40.984Z,27
2023-05-12T06:49:57.970Z,27.5
2023-05-12T06:51:14.992Z,27.7
2023-05-12T06:52:31.935Z,28
2023-05-12T06:53:48.981Z,27.7
2023-05-12T06:55:05.986Z,27.5
2023-05-12T06:56:22.974Z,27.7
2023-05-12T06:57:40.026Z,28.1
2023-05-12T06:58:56.979Z,28.4
2023-05-12T07:00:13.976Z,28.1
2023-05-12T07:01:31.025Z,27.6
2023-05-12T07:02:48.024Z,27.8
2023-05-12T07:04:05.075Z,28
2023-05-12T07:05:22.269Z,28.3
2023-05-12T07:06:38.966Z,28.5
2023-05-12T07:07:56.045Z,27.8
2023-05-12T07:09:13.006Z,26.9
2023-05-12T07:10:30.048Z,26.5
2023-05-12T07:11:46.976Z,26.3
2023-05-12T07:13:04.082Z,26
2023-05-12T07:14:20.980Z,26
2023-05-12T07:15:38.062Z,26.2
2023-05-12T07:16:55.301Z,26.2
2023-05-12T07:18:12.082Z,25.7
2023-05-12T07:19:28.988Z,25.4
2023-05-12T07:20:46.037Z,25.5
2023-05-12T07:22:03.026Z,25.5
2023-05-12T07:23:20.046Z,25.7
2023-05-12T07:24:37.034Z,26
2023-05-12T07:25:54.033Z,26.4
2023-05-12T07:27:11.039Z,27
2023-05-12T07:28:28.076Z,27.2
2023-05-12T07:29:45.536Z,26.8
2023-05-12T07:31:03.086Z,26.6
2023-05-12T07:32:20.021Z,26.6
2023-05-12T07:33:37.029Z,26.1
2023-05-12T07:34:54.037Z,25.7
2023-05-12T07:36:11.035Z,25.9
2023-05-12T07:37:28.017Z,26.1
2023-05-12T07:38:45.027Z,26.1
2023-05-12T07:40:02.074Z,26.1
2023-05-12T07:41:19.029Z,26.3
2023-05-12T07:42:36.062Z,26.8
2023-05-12T07:43:53.127Z,27.4
2023-05-12T07:45:10.056Z,28
2023-05-12T07:46:27.076Z,28.1
2023-05-12T07:47:44.076Z,28.1
2023-05-12T07:49:01.117Z,27.5
2023-05-12T07:50:18.175Z,27
2023-05-12T07:51:35.053Z,26.9
2023-05-12T07:52:52.125Z,27.1
2023-05-12T07:54:09.088Z,27.2
2023-05-12T07:55:26.052Z,27.4
2023-05-12T07:56:43.067Z,27.4
2023-05-12T07:58:00.500Z,27.6
2023-05-12T07:59:17.159Z,28
2023-05-12T08:00:34.061Z,28.5
2023-05-12T08:01:51.130Z,28.6
2023-05-12T08:03:08.191Z,28.6
2023-05-12T08:04:25.182Z,28.4
2023-05-12T08:05:42.102Z,28.3
2023-05-12T08:06:59.070Z,27.9
2023-05-12T08:08:16.098Z,27.9
2023-05-12T08:09:33.179Z,28.1
2023-05-12T08:10:50.117Z,28.1
2023-05-12T08:12:07.114Z,28
2023-05-12T08:13:24.079Z,28.2
2023-05-12T08:14:41.112Z,28.3
2023-05-12T08:15:58.168Z,28.7
2023-05-12T08:17:16.303Z,29
2023-05-12T08:18:33.123Z,29.5
2023-05-12T08:19:50.136Z,29.9
2023-05-12T08:21:07.133Z,30.1
2023-05-12T08:22:24.118Z,29.9
2023-05-12T08:23:41.127Z,29.9
2023-05-12T08:24:58.233Z,30
2023-05-12T08:26:15.110Z,30
2023-05-12T08:27:32.107Z,30
2023-05-12T08:28:49.133Z,30.4
2023-05-12T08:30:06.245Z,30.5
2023-05-12T08:31:23.158Z,30.6
2023-05-12T08:32:40.254Z,30.5
2023-05-12T08:34:08.880Z,30
2023-05-12T08:35:14.196Z,29.9
2023-05-12T08:36:31.118Z,29.7
2023-05-12T08:37:48.126Z,29.6
2023-05-12T08:39:05.150Z,29.5
2023-05-12T08:40:22.131Z,29.8
2023-05-12T08:41:39.220Z,30
2023-05-12T08:42:56.150Z,29.9
2023-05-12T08:44:13.184Z,29.6
2023-05-12T08:45:30.567Z,29.5
2023-05-12T08:46:47.173Z,29.4
2023-05-12T08:48:04.214Z,29.2
2023-05-12T08:49:21.182Z,29.2
2023-05-12T08:50:38.171Z,29.3
2023-05-12T08:51:58.038Z,29.5
2023-05-12T08:53:12.257Z,29.4
2023-05-12T08:54:29.253Z,29.5
2023-05-12T08:55:54.357Z,29.6
2023-05-12T08:58:25.245Z,29.3
2023-05-12T08:59:37.264Z,29.4
2023-05-12T09:00:54.283Z,29.3
2023-05-12T09:02:11.192Z,29.3
2023-05-12T09:03:28.208Z,29.4
2023-05-12T09:04:45.307Z,29.6
2023-05-12T09:06:02.202Z,29.8
2023-05-12T09:07:19.253Z,30
2023-05-12T09:08:37.184Z,30.1
2023-05-12T09:09:54.185Z,30.4
2023-05-12T09:11:11.177Z,30.4
2023-05-12T09:12:28.249Z,30.5
2023-05-12T09:13:45.194Z,30.1
2023-05-12T09:15:02.215Z,29.7
2023-05-12T09:16:19.684Z,29.5
2023-05-12T09:17:36.247Z,29.7
2023-05-12T09:18:53.287Z,29.8
2023-05-12T09:20:17.836Z,29.9
2023-05-12T09:21:27.217Z,29.9
2023-05-12T09:22:44.216Z,29.8
2023-05-12T09:24:01.218Z,29.4
2023-05-12T09:25:18.354Z,29.3
2023-05-12T09:26:35.242Z,29.6
2023-05-12T09:27:52.254Z,30
2023-05-12T09:29:09.937Z,29.8
2023-05-12T09:30:26.365Z,29.3
2023-05-12T09:31:43.635Z,28.6
2023-05-12T09:33:00.287Z,28.4
2023-05-12T09:34:17.230Z,28.5
2023-05-12T09:35:34.273Z,28.6
2023-05-12T09:36:51.247Z,28.5
2023-05-12T09:38:08.459Z,28
2023-05-12T09:39:25.236Z,27.6
2023-05-12T09:40:42.339Z,27.5
2023-05-12T09:41:59.275Z,27.5
2023-05-12T09:43:16.302Z,27.8
2023-05-12T09:44:33.328Z,28.3
2023-05-12T09:45:49.688Z,28.8
2023-05-12T09:47:07.402Z,29.5
2023-05-12T09:48:26.186Z,30.2
2023-05-12T09:49:41.338Z,30.2
2023-05-12T09:50:58.296Z,29.7
2023-05-12T09:52:15.394Z,29.2
2023-05-12T09:53:32.250Z,28.7
2023-05-12T09:54:49.259Z,28.5
2023-05-12T09:56:06.274Z,28.6
2023-05-12T09:57:23.350Z,28.6
2023-05-12T09:58:40.524Z,28.7
2023-05-12T09:59:57.273Z,28.7
2023-05-12T10:01:22.507Z,28.8
2023-05-12T10:02:31.531Z,28.9
2023-05-12T10:03:48.296Z,28.7
2023-05-12T10:05:05.348Z,28.5
2023-05-12T10:06:22.303Z,28.5
2023-05-12T10:07:39.342Z,28.6
2023-05-12T10:08:56.288Z,28.6
2023-05-12T10:10:13.340Z,28.7
2023-05-12T10:11:30.316Z,28.9
2023-05-12T10:12:47.355Z,28.6
2023-05-12T10:14:04.313Z,28.3
2023-05-12T10:15:21.440Z,28.4
2023-05-12T10:16:37.715Z,28.8
2023-05-12T10:17:54.164Z,29.5
2023-05-12T10:19:10.750Z,30.3
2023-05-12T10:20:27.316Z,30.9
2023-05-12T10:21:44.451Z,31.3
2023-05-12T10:23:01.407Z,31.5
2023-05-12T10:24:18.338Z,31.3
2023-05-12T10:25:35.395Z,31
2023-05-12T10:26:52.311Z,30.5
2023-05-12T10:28:09.334Z,30.4
2023-05-12T10:29:26.369Z,30.6
2023-05-12T10:30:43.365Z,30.9
2023-05-12T10:32:00.376Z,31
2023-05-12T10:33:17.426Z,30.4
2023-05-12T10:34:34.368Z,29.8
2023-05-12T10:35:51.341Z,29.7
2023-05-12T10:37:08.476Z,29.8
2023-05-12T10:38:25.346Z,29.7
2023-05-12T10:39:42.345Z,29.4
2023-05-12T10:40:59.395Z,29.3
2023-05-12T10:42:16.383Z,29.3
2023-05-12T10:43:33.348Z,29.4
2023-05-12T10:44:50.401Z,29.5
2023-05-12T10:46:07.398Z,29.6
2023-05-12T10:47:24.418Z,29.3
2023-05-12T10:48:41.438Z,29.3
2023-05-12T10:49:58.410Z,29.4
2023-05-12T10:51:15.360Z,29.2
2023-05-12T10:52:32.403Z,29
2023-05-12T10:53:52.714Z,29.1
2023-05-12T10:55:06.380Z,29.2
2023-05-12T10:56:23.681Z,29.5
2023-05-12T10:57:40.618Z,29.5
2023-05-12T10:58:57.575Z,29.6
2023-05-12T11:00:14.764Z,29.8
2023-05-12T11:01:31.725Z,29.7
2023-05-12T11:02:48.748Z,29.5
2023-05-12T11:04:05.546Z,29.2
2023-05-12T11:05:22.757Z,29.2
2023-05-12T11:06:40.680Z,29.4
2023-05-12T11:07:57.034Z,29.6
2023-05-12T11:09:13.668Z,29.5
2023-05-12T11:10:31.175Z,29.3
2023-05-12T11:11:47.653Z,29.3
2023-05-12T11:13:04.470Z,29.7
2023-05-12T11:14:21.399Z,29.9
2023-05-12T11:15:38.473Z,29.8
2023-05-12T11:16:55.401Z,29.8
2023-05-12T11:18:12.448Z,30.1
2023-05-12T11:19:29.430Z,30.6
2023-05-12T11:20:46.426Z,30.4
2023-05-12T11:22:03.425Z,29.6
2023-05-12T11:23:20.433Z,29.1
2023-05-12T11:24:37.435Z,29
2023-05-12T11:25:54.500Z,29.1
2023-05-12T11:27:11.450Z,29.1
2023-05-12T11:28:28.506Z,29.3
2023-05-12T11:29:45.468Z,29.6
2023-05-12T11:31:01.889Z,30.2
2023-05-12T11:32:18.458Z,30.5
2023-05-12T11:33:34.868Z,31
2023-05-12T11:34:50.883Z,31.4
2023-05-12T11:36:12.436Z,32
2023-05-12T11:37:29.519Z,32.3
2023-05-12T11:38:46.449Z,32
2023-05-12T11:40:03.472Z,31.7
2023-05-12T11:41:20.464Z,31.6
2023-05-12T11:42:37.524Z,31.4
2023-05-12T11:43:54.459Z,31.2
2023-05-12T11:45:11.469Z,31.2
2023-05-12T11:46:28.495Z,31
2023-05-12T11:47:45.506Z,30.6
2023-05-12T11:49:03.495Z,30.5
2023-05-12T11:50:20.555Z,30.8
2023-05-12T11:51:37.472Z,31.1
2023-05-12T11:52:55.507Z,31.2
2023-05-12T11:54:12.481Z,30.8
2023-05-12T11:55:29.477Z,30.4
2023-05-12T11:56:46.488Z,30.1
2023-05-12T11:58:03.575Z,29.7
2023-05-12T11:59:20.508Z,29.6
2023-05-12T12:00:37.498Z,29.5
2023-05-12T12:01:54.530Z,29.4
2023-05-12T12:03:11.740Z,29.3
2023-05-12T12:04:28.508Z,29.2
2023-05-12T12:05:45.534Z,29.3
2023-05-12T12:07:01.907Z,29.5
2023-05-12T12:08:18.537Z,29.9
2023-05-12T12:09:35.532Z,30.2
2023-05-12T12:10:52.527Z,30.2
2023-05-12T12:12:09.512Z,30.3
2023-05-12T12:13:26.567Z,30.7
2023-05-12T12:14:44.413Z,30.7
2023-05-12T12:16:01.559Z,30.2
2023-05-12T12:17:18.521Z,29.9
2023-05-12T12:18:35.626Z,29.7
2023-05-12T12:19:52.535Z,29.2
2023-05-12T12:21:09.822Z,28.4
2023-05-12T12:22:26.564Z,28.1
2023-05-12T12:23:50.724Z,28
2023-05-12T12:25:00.539Z,27.9
2023-05-12T12:26:17.554Z,27.9
2023-05-12T12:27:34.611Z,27.8
2023-05-12T12:28:51.539Z,27.8
2023-05-12T12:30:08.573Z,27.7
2023-05-12T12:31:25.572Z,27.5
2023-05-12T12:32:42.641Z,27.5
2023-05-12T12:33:59.545Z,27.8
2023-05-12T12:35:16.602Z,28.1
2023-05-12T12:36:33.591Z,28.7
2023-05-12T12:37:50.570Z,28.9
2023-05-12T12:39:07.670Z,29.1
2023-05-12T12:40:24.562Z,29.6
2023-05-12T12:41:41.585Z,30
2023-05-12T12:42:58.571Z,30.2
2023-05-12T12:44:15.587Z,29.8
2023-05-12T12:45:32.569Z,29.2
2023-05-12T12:46:49.598Z,28.9
2023-05-12T12:48:06.690Z,29.2
2023-05-12T12:49:23.599Z,29.2
2023-05-12T12:50:40.589Z,29.1
2023-05-12T12:51:57.681Z,28.8
2023-05-12T12:53:14.634Z,28.7
2023-05-12T12:54:31.614Z,28.5
2023-05-12T12:55:48.592Z,28.2
2023-05-12T12:57:05.608Z,27.9
2023-05-12T12:58:22.670Z,27.6
2023-05-12T12:59:39.613Z,27.3
2023-05-12T13:00:56.656Z,27.3
2023-05-12T13:02:13.672Z,27.5
2023-05-12T13:03:30.677Z,27.7
2023-05-12T13:04:47.610Z,28
2023-05-12T13:06:04.637Z,28.2
2023-05-12T13:07:21.646Z,28.6
2023-05-12T13:08:38.648Z,28.8
2023-05-12T13:09:55.643Z,29
2023-05-12T13:11:12.613Z,29.4
2023-05-12T13:12:29.617Z,29.9
2023-05-12T13:13:46.668Z,30.4
2023-05-12T13:15:03.742Z,30.7
2023-05-12T13:16:20.675Z,30.7
2023-05-12T13:17:37.680Z,30.1
2023-05-12T13:18:54.720Z,29.6
2023-05-12T13:20:11.674Z,29.4
2023-05-12T13:21:28.665Z,29.1
2023-05-12T13:22:45.788Z,28.7
2023-05-12T13:24:02.669Z,28.1
2023-05-12T13:25:19.801Z,27.8
2023-05-12T13:26:36.645Z,27.3
2023-05-12T13:27:53.675Z,27.1
2023-05-12T13:29:10.679Z,27.3
2023-05-12T13:30:27.762Z,27.5
2023-05-12T13:31:44.692Z,27.5
2023-05-12T13:33:03.210Z,27.4
2023-05-12T13:34:18.666Z,27.4
2023-05-12T13:35:35.719Z,27.5
2023-05-12T13:36:52.693Z,27.7
2023-05-12T13:38:09.707Z,27.7
2023-05-12T13:39:26.667Z,27.7
2023-05-12T13:40:43.800Z,27.9
2023-05-12T13:42:00.736Z,27.9
2023-05-12T13:43:17.681Z,27.9
2023-05-12T13:44:34.722Z,27.6
2023-05-12T13:45:51.703Z,27.2
2023-05-12T13:47:08.866Z,26.9
2023-05-12T13:48:25.702Z,26.8
2023-05-12T13:49:42.703Z,27
2023-05-12T13:50:59.704Z,27.3
2023-05-12T13:52:16.686Z,27.7
2023-05-12T13:53:33.852Z,28
2023-05-12T13:54:50.774Z,28
2023-05-12T13:56:07.737Z,28
2023-05-12T13:57:24.703Z,27.9
2023-05-12T13:58:41.931Z,28
2023-05-12T13:59:58.757Z,27.9
2023-05-12T14:01:15.768Z,27.8
2023-05-12T14:02:32.756Z,27.4
2023-05-12T14:03:49.709Z,27.1
2023-05-12T14:05:06.754Z,26.8
2023-05-12T14:06:23.787Z,26.8
2023-05-12T14:07:40.701Z,27
2023-05-12T14:08:57.782Z,27.3
2023-05-12T14:10:14.726Z,27.7
2023-05-12T14:11:31.834Z,28.1
2023-05-12T14:12:48.793Z,28.6
2023-05-12T14:14:05.780Z,29.1
2023-05-12T14:15:29.300Z,29.7
2023-05-12T14:16:40.801Z,30
2023-05-12T14:17:57.747Z,30
2023-05-12T14:19:14.773Z,29.7
2023-05-12T14:20:31.750Z,29
2023-05-12T14:21:48.793Z,28.4
2023-05-12T14:23:05.997Z,27.9
2023-05-12T14:24:22.821Z,27.3
2023-05-12T14:25:39.752Z,26.8
2023-05-12T14:26:56.781Z,26.5
2023-05-12T14:28:13.871Z,26.2
2023-05-12T14:29:30.826Z,26
2023-05-12T14:30:47.787Z,25.9
2023-05-12T14:32:04.821Z,25.9
2023-05-12T14:33:21.795Z,25.8
2023-05-12T14:34:38.777Z,25.8
2023-05-12T14:36:06.368Z,25.9
2023-05-12T14:37:12.803Z,25.9
2023-05-12T14:38:29.768Z,26
2023-05-12T14:39:46.834Z,26
2023-05-12T14:41:03.838Z,26
2023-05-12T14:42:20.781Z,26.2
2023-05-12T14:43:37.774Z,26.3
2023-05-12T14:44:54.776Z,26.5
2023-05-12T14:46:11.913Z,26.6
2023-05-12T14:47:28.816Z,26.5
2023-05-12T14:48:45.794Z,26.5
2023-05-12T14:50:02.905Z,26.7
2023-05-12T14:51:19.796Z,26.8
2023-05-12T14:52:36.789Z,26.8
2023-05-12T14:53:53.798Z,26.8
2023-05-12T14:55:10.891Z,26.8
2023-05-12T14:56:27.834Z,26.9
2023-05-12T14:57:44.807Z,26.9
2023-05-12T14:59:01.801Z,26.9
2023-05-12T15:00:18.853Z,26.8
2023-05-12T15:01:35.809Z,26.6
2023-05-12T15:02:52.952Z,26.5
2023-05-12T15:04:09.836Z,26.4
2023-05-12T15:05:36.254Z,26.3
2023-05-12T15:06:43.858Z,26.3
2023-05-12T15:08:00.820Z,26.4
2023-05-12T15:09:17.823Z,26.3
2023-05-12T15:10:34.867Z,26.2
2023-05-12T15:11:51.843Z,26.4
2023-05-12T15:13:08.846Z,26.7
2023-05-12T15:14:25.884Z,27.1
2023-05-12T15:15:42.865Z,27.2
2023-05-12T15:16:59.885Z,27
2023-05-12T15:18:16.858Z,26.8
2023-05-12T15:19:33.852Z,26.6
2023-05-12T15:20:50.921Z,26.6
2023-05-12T15:22:07.924Z,26.6
2023-05-12T15:23:24.864Z,26.5
2023-05-12T15:24:41.857Z,26.5
2023-05-12T15:26:01.345Z,26.5
2023-05-12T15:27:15.874Z,26.6
2023-05-12T15:28:32.886Z,26.6
2023-05-12T15:29:49.915Z,26.6
2023-05-12T15:31:06.898Z,26.5
2023-05-12T15:32:23.914Z,26.5
2023-05-12T15:33:40.864Z,26.6
2023-05-12T15:34:57.916Z,26.7
2023-05-12T15:36:14.900Z,26.7
2023-05-12T15:37:31.903Z,26.7
2023-05-12T15:38:49.256Z,26.8
2023-05-12T15:40:07.340Z,26.7
2023-05-12T15:41:24.128Z,26.6
2023-05-12T15:42:40.893Z,26.6
2023-05-12T15:43:57.890Z,26.6
2023-05-12T15:45:14.975Z,26.6
2023-05-12T15:46:31.919Z,26.5
2023-05-12T15:47:48.918Z,26.3
2023-05-12T15:49:05.916Z,26.2
2023-05-12T15:50:23.247Z,26.1
2023-05-12T15:51:39.913Z,25.9
2023-05-12T15:52:56.889Z,25.7
2023-05-12T15:54:13.924Z,25.5
2023-05-12T15:55:30.911Z,25.5
2023-05-12T15:56:47.932Z,25.4
2023-05-12T15:58:04.933Z,25.3
2023-05-12T15:59:21.907Z,25.2
2023-05-12T16:00:38.953Z,25.1
2023-05-12T16:01:56.171Z,25.1
2023-05-12T16:03:12.996Z,25.1
2023-05-12T16:04:29.981Z,25.1
2023-05-12T16:05:46.981Z,25.2
2023-05-12T16:07:03.935Z,25.2
2023-05-12T16:08:20.933Z,25.1
2023-05-12T16:09:37.951Z,25.1
2023-05-12T16:10:54.969Z,25.1
2023-05-12T16:12:12.017Z,25.1
2023-05-12T16:13:28.930Z,25.1
2023-05-12T16:14:45.953Z,25.1
2023-05-12T16:16:03.050Z,25.1
2023-05-12T16:17:19.938Z,25.3
2023-05-12T16:18:37.006Z,25.4
2023-05-12T16:19:53.948Z,25.5
2023-05-12T16:21:10.980Z,25.6
2023-05-12T16:22:27.978Z,25.6
2023-05-12T16:23:44.942Z,25.6
2023-05-12T16:25:01.947Z,25.4
2023-05-12T16:26:18.977Z,25.3
2023-05-12T16:27:35.997Z,25.3
2023-05-12T16:28:52.967Z,25.3
2023-05-12T16:30:10.019Z,25.2
2023-05-12T16:31:26.973Z,25.1
2023-05-12T16:32:44.033Z,25.1
2023-05-12T16:34:00.983Z,25.2
2023-05-12T16:35:18.046Z,25.2
2023-05-12T16:36:34.968Z,25.3
2023-05-12T16:37:51.992Z,25.3
2023-05-12T16:39:08.991Z,25.2
2023-05-12T16:40:26.033Z,25.1
2023-05-12T16:41:42.977Z,25.1
2023-05-12T16:43:00.000Z,25.1
2023-05-12T16:44:17.020Z,25
2023-05-12T16:45:33.998Z,24.8
2023-05-12T16:46:51.495Z,24.8
2023-05-12T16:48:09.052Z,24.8
2023-05-12T16:49:26.236Z,24.8
2023-05-12T16:50:43.045Z,24.8
2023-05-12T16:51:59.999Z,24.8
2023-05-12T16:53:17.023Z,24.8
2023-05-12T16:54:34.002Z,24.9
2023-05-12T16:55:51.023Z,24.8
2023-05-12T16:57:07.998Z,24.7
2023-05-12T16:58:25.085Z,24.6
2023-05-12T16:59:42.024Z,24.6
2023-05-12T17:00:59.016Z,24.6
2023-05-12T17:02:16.022Z,24.7
2023-05-12T17:03:33.085Z,24.8
2023-05-12T17:04:50.016Z,24.8
2023-05-12T17:06:07.022Z,24.7
2023-05-12T17:07:24.047Z,24.6
2023-05-12T17:08:41.052Z,24.7
2023-05-12T17:09:58.128Z,24.7
2023-05-12T17:11:15.025Z,24.6
2023-05-12T17:12:32.047Z,24.6